Nur fliegen ist schöner ....

Willkommen beim Flugservice Bautzen GmbH

Wir sind eine nach europäischen Richtlinien zugelassene Flugschule und lizenziertes Luftfahrtunternehmen. Bei uns können sie nicht nur Rundflüge über die Oberlausitz oder Sachsen buchen, sondern in unserer Flugschule selber das Fliegen erlernen. Erfahrene Fluglehrer stehen Ihnen dabei zur Seite.

Wir bieten Ihnen außerdem spezielle Flüge zur Vermessung oder Fotoflüge für Luftbildaufnahmen an. In Zusammenarbeit mit dem Fallschirmsportclub Dresden und dem Cottbuser Fallschirmsportclub setzen wir am Flugplatz Bautzen und Neuhausen Fallschirmspringer ab.
Schauen Sie sich in Ruhe bei uns um und wenn Sie Fragen haben oder weitere Informationen benötigen, scheuen Sie sich nicht Kontakt mit uns aufzunehmen.

Gutscheine für Rundflüge und Tandemsprünge können Sie ganz leicht auch online in unserem Shop erwerben.

Terminkalender

Letzter Monat Oktober 2020 Nächster Monat
Mo Di Mi Do Fr Sa So
week 40 1 2 3 4
week 41 5 6 7 8 9 10 11
week 42 12 13 14 15 16 17 18
week 43 19 20 21 22 23 24 25
week 44 26 27 28 29 30 31

Flugwetterinfo

[Quelle: ADDS]
METAR
EDDC 300420Z 17005KT 140V200 9999 -RA BKN018 OVC038 08/07 Q1017 =
EDDC 292300Z 3000/3024 22005KT 9999 BKN025 OVC045 TEMPO 3004/3019 4500 RADZ BKN014 BECMG 3006/3009 26012KT BECMG 3019/3021 4500 RA BKN014
TAF
EDDC 292300Z 3000/3024 22005KT 9999 BKN025 OVC045 TEMPO 3004/3019 4500 RADZ BKN014 BECMG 3006/3009 26012KT BECMG 3019/3021 4500 RA BKN014 =
SR / SS: 05:51 / 15:39 UTC (EDAB Flugplatz Bautzen 2020-10-30)

Öffnungszeiten

des Flugplatzes Bautzen erfahren Sie hier:

flugplatz bautzen logo
Flugservice Bautzen GmbH, Kornmarkt 34, 02625 Bautzen  Telefon: +49 (3591) 211105, Telefax: +49 (3591) 274512, E-Mail:  flugservice(at)fsbautzen.de